createdAt,value
2023-02-05T00:01:42.946Z,3.53
2023-02-05T00:04:10.801Z,3.97
2023-02-05T00:06:38.275Z,3.60
2023-02-05T00:09:05.719Z,3.60
2023-02-05T00:11:33.346Z,3.57
2023-02-05T00:14:00.894Z,3.53
2023-02-05T00:16:28.522Z,3.97
2023-02-05T00:18:57.517Z,3.70
2023-02-05T00:21:24.957Z,3.57
2023-02-05T00:23:52.954Z,4.00
2023-02-05T00:26:21.073Z,3.40
2023-02-05T00:28:49.131Z,3.77
2023-02-05T00:31:20.761Z,3.60
2023-02-05T00:33:49.758Z,3.40
2023-02-05T00:36:19.370Z,3.80
2023-02-05T00:38:47.313Z,3.30
2023-02-05T00:41:15.816Z,3.20
2023-02-05T00:43:44.026Z,3.70
2023-02-05T00:46:13.797Z,3.23
2023-02-05T00:48:43.677Z,4.07
2023-02-05T00:51:11.888Z,3.70
2023-02-05T00:53:39.707Z,3.50
2023-02-05T00:56:07.405Z,3.67
2023-02-05T00:58:35.150Z,3.77
2023-02-05T01:01:02.708Z,3.70
2023-02-05T01:03:30.268Z,3.60
2023-02-05T01:05:57.763Z,3.70
2023-02-05T01:08:25.288Z,4.20
2023-02-05T01:10:52.803Z,3.60
2023-02-05T01:13:20.439Z,3.93
2023-02-05T01:15:47.953Z,3.93
2023-02-05T01:18:15.546Z,3.87
2023-02-05T01:20:43.769Z,3.43
2023-02-05T01:23:12.068Z,3.77
2023-02-05T01:25:40.257Z,3.50
2023-02-05T01:28:07.796Z,3.87
2023-02-05T01:30:36.103Z,3.33
2023-02-05T01:33:04.503Z,3.53
2023-02-05T01:35:32.762Z,4.00
2023-02-05T01:38:00.399Z,4.13
2023-02-05T01:40:27.938Z,4.20
2023-02-05T01:42:55.424Z,4.10
2023-02-05T01:45:22.779Z,4.27
2023-02-05T01:47:57.550Z,4.63
2023-02-05T01:50:43.595Z,4.73
2023-02-05T01:53:20.258Z,4.80
2023-02-05T01:56:03.305Z,4.70
2023-02-05T01:58:40.255Z,4.50
2023-02-05T02:01:08.065Z,3.70
2023-02-05T02:03:36.618Z,3.93
2023-02-05T02:06:05.084Z,4.40
2023-02-05T02:08:33.788Z,4.03
2023-02-05T02:11:05.949Z,3.70
2023-02-05T02:13:36.646Z,3.77
2023-02-05T02:16:06.094Z,3.63
2023-02-05T02:18:35.037Z,3.70
2023-02-05T02:21:56.284Z,4.30
2023-02-05T02:24:56.156Z,3.90
2023-02-05T02:27:49.468Z,4.33
2023-02-05T02:30:30.827Z,4.20
2023-02-05T02:33:32.329Z,3.80
2023-02-05T02:36:10.170Z,3.97
2023-02-05T02:39:02.911Z,4.20
2023-02-05T02:41:48.212Z,4.20
2023-02-05T02:44:35.773Z,4.23
2023-02-05T02:47:22.217Z,4.10
2023-02-05T02:50:05.539Z,4.57
2023-02-05T02:52:38.864Z,3.97
2023-02-05T02:55:11.483Z,4.10
2023-02-05T02:57:42.391Z,4.10
2023-02-05T03:00:16.930Z,4.17
2023-02-05T03:02:46.853Z,4.23
2023-02-05T03:05:19.581Z,4.10
2023-02-05T03:08:18.877Z,4.20
2023-02-05T03:11:06.803Z,4.30
2023-02-05T03:13:35.117Z,4.00
2023-02-05T03:16:03.472Z,4.20
2023-02-05T03:18:31.305Z,4.00
2023-02-05T03:21:09.009Z,3.90
2023-02-05T03:23:36.637Z,3.97
2023-02-05T03:26:04.186Z,4.23
2023-02-05T03:28:32.151Z,3.67
2023-02-05T03:31:14.046Z,4.33
2023-02-05T03:33:56.823Z,4.73
2023-02-05T03:36:34.553Z,4.10
2023-02-05T03:39:19.447Z,4.27
2023-02-05T03:42:24.206Z,4.00
2023-02-05T03:45:39.615Z,4.03
2023-02-05T03:48:57.030Z,4.00
2023-02-05T03:51:37.611Z,3.80
2023-02-05T03:54:31.516Z,4.10
2023-02-05T03:57:16.191Z,4.13
2023-02-05T03:59:44.349Z,3.70
2023-02-05T04:02:12.769Z,4.00
2023-02-05T04:04:40.518Z,4.10
2023-02-05T04:07:08.177Z,4.60
2023-02-05T04:09:35.586Z,4.47
2023-02-05T04:12:02.996Z,3.60
2023-02-05T04:14:30.448Z,3.60
2023-02-05T04:16:58.087Z,3.50
2023-02-05T04:19:25.561Z,3.83
2023-02-05T04:21:52.938Z,3.90
2023-02-05T04:24:20.345Z,4.17
2023-02-05T04:26:47.874Z,3.90
2023-02-05T04:29:15.675Z,4.10
2023-02-05T04:31:43.183Z,3.60
2023-02-05T04:34:10.678Z,4.60
2023-02-05T04:36:38.252Z,4.50
2023-02-05T04:39:05.807Z,4.17
2023-02-05T04:41:33.276Z,4.23
2023-02-05T04:44:00.710Z,3.83
2023-02-05T04:46:28.147Z,4.10
2023-02-05T04:48:55.587Z,3.80
2023-02-05T04:51:23.044Z,4.40
2023-02-05T04:53:50.539Z,3.90
2023-02-05T04:56:18.978Z,4.10
2023-02-05T04:58:46.898Z,3.87
2023-02-05T05:01:17.587Z,3.93
2023-02-05T05:03:45.740Z,3.80
2023-02-05T05:06:14.315Z,3.73
2023-02-05T05:08:42.462Z,3.53
2023-02-05T05:11:13.338Z,3.80
2023-02-05T05:13:41.694Z,3.73
2023-02-05T05:16:11.135Z,3.57
2023-02-05T05:18:41.921Z,3.90
2023-02-05T05:21:09.733Z,3.70
2023-02-05T05:23:38.453Z,4.10
2023-02-05T05:26:08.945Z,3.43
2023-02-05T05:28:36.984Z,3.70
2023-02-05T05:31:20.141Z,4.10
2023-02-05T05:33:48.240Z,4.00
2023-02-05T05:36:16.057Z,4.50
2023-02-05T05:38:43.878Z,4.97
2023-02-05T05:41:40.452Z,6.10
2023-02-05T05:44:08.171Z,4.03
2023-02-05T05:46:36.755Z,4.30
2023-02-05T05:49:04.709Z,4.50
2023-02-05T05:51:33.476Z,4.77
2023-02-05T05:54:00.964Z,4.50
2023-02-05T05:56:28.679Z,4.60
2023-02-05T05:58:56.176Z,4.43
2023-02-05T06:01:23.574Z,4.50
2023-02-05T06:03:51.319Z,3.97
2023-02-05T06:06:18.709Z,4.23
2023-02-05T06:08:46.228Z,4.77
2023-02-05T06:11:13.740Z,4.33
2023-02-05T06:13:41.959Z,5.37
2023-02-05T06:16:09.750Z,10.20
2023-02-05T06:18:37.243Z,9.57
2023-02-05T06:21:06.026Z,8.70
2023-02-05T06:23:34.490Z,8.10
2023-02-05T06:26:02.429Z,8.00
2023-02-05T06:28:29.993Z,6.67
2023-02-05T06:30:57.488Z,5.03
2023-02-05T06:33:25.138Z,4.60
2023-02-05T06:35:52.604Z,5.00
2023-02-05T06:38:20.013Z,4.80
2023-02-05T06:40:48.867Z,4.40
2023-02-05T06:43:16.443Z,4.63
2023-02-05T06:45:43.845Z,5.00
2023-02-05T06:48:11.352Z,4.97
2023-02-05T06:50:38.751Z,4.60
2023-02-05T06:53:06.183Z,5.10
2023-02-05T06:55:34.007Z,5.60
2023-02-05T06:58:01.558Z,5.50
2023-02-05T07:00:29.597Z,6.13
2023-02-05T07:02:57.463Z,5.80
2023-02-05T07:05:24.880Z,5.60
2023-02-05T07:07:52.325Z,5.47
2023-02-05T07:10:20.267Z,5.40
2023-02-05T07:12:47.777Z,4.80
2023-02-05T07:15:15.266Z,5.93
2023-02-05T07:17:42.646Z,6.07
2023-02-05T07:20:10.794Z,5.73
2023-02-05T07:22:38.266Z,5.40
2023-02-05T07:25:06.110Z,5.37
2023-02-05T07:27:33.546Z,5.20
2023-02-05T07:30:01.143Z,5.13
2023-02-05T07:32:28.555Z,5.67
2023-02-05T07:34:55.943Z,5.40
2023-02-05T07:37:23.385Z,8.87
2023-02-05T07:39:51.020Z,8.00
2023-02-05T07:42:18.512Z,9.80
2023-02-05T07:44:45.942Z,7.40
2023-02-05T07:47:13.335Z,7.17
2023-02-05T07:49:40.795Z,6.30
2023-02-05T07:52:08.348Z,6.87
2023-02-05T07:54:35.782Z,6.83
2023-02-05T07:57:04.428Z,6.50
2023-02-05T07:59:33.411Z,7.03
2023-02-05T08:02:00.930Z,6.43
2023-02-05T08:04:28.444Z,10.30
2023-02-05T08:06:55.889Z,9.20
2023-02-05T08:09:23.373Z,12.67
2023-02-05T08:11:50.751Z,37.43
2023-02-05T08:14:18.195Z,20.07
2023-02-05T08:16:45.669Z,7.50
2023-02-05T08:19:18.097Z,5.77
2023-02-05T08:21:45.622Z,5.43
2023-02-05T08:24:13.417Z,6.10
2023-02-05T08:26:40.925Z,5.17
2023-02-05T08:29:09.622Z,6.37
2023-02-05T08:31:38.198Z,6.23
2023-02-05T08:34:05.972Z,5.63
2023-02-05T08:36:33.439Z,4.83
2023-02-05T08:39:00.906Z,5.43
2023-02-05T08:41:28.695Z,4.67
2023-02-05T08:43:56.616Z,5.57
2023-02-05T08:46:31.599Z,5.93
2023-02-05T08:49:04.872Z,5.70
2023-02-05T08:51:33.561Z,6.20
2023-02-05T08:54:00.962Z,5.80
2023-02-05T08:56:28.429Z,5.70
2023-02-05T08:58:56.294Z,5.40
2023-02-05T09:01:23.831Z,5.47
2023-02-05T09:03:51.255Z,5.97
2023-02-05T09:06:18.775Z,5.03
2023-02-05T09:08:47.123Z,5.37
2023-02-05T09:11:14.740Z,5.23
2023-02-05T09:13:42.207Z,5.30
2023-02-05T09:16:11.657Z,5.57
2023-02-05T09:18:39.294Z,6.40
2023-02-05T09:21:08.898Z,5.70
2023-02-05T09:23:36.875Z,6.40
2023-02-05T09:26:05.392Z,5.17
2023-02-05T09:28:33.344Z,5.90
2023-02-05T09:31:10.814Z,6.23
2023-02-05T09:33:38.323Z,6.40
2023-02-05T09:36:13.509Z,6.40
2023-02-05T09:38:41.835Z,6.03
2023-02-05T09:41:14.998Z,6.50
2023-02-05T09:44:21.878Z,5.00
2023-02-05T09:47:07.680Z,5.60
2023-02-05T09:49:47.406Z,5.27
2023-02-05T09:52:32.939Z,5.43
2023-02-05T09:55:15.347Z,5.23
2023-02-05T09:57:43.031Z,5.43
2023-02-05T10:00:34.317Z,6.20
2023-02-05T10:03:29.077Z,6.07
2023-02-05T10:06:46.884Z,7.73
2023-02-05T10:10:03.026Z,5.40
2023-02-05T10:12:41.850Z,4.60
2023-02-05T10:15:46.252Z,4.83
2023-02-05T10:19:21.804Z,5.40
2023-02-05T10:22:11.969Z,5.83
2023-02-05T10:24:47.729Z,6.50
2023-02-05T10:28:04.726Z,5.33
2023-02-05T10:30:52.417Z,2.67
2023-02-05T10:33:56.288Z,2.10
2023-02-05T10:36:26.874Z,3.07
2023-02-05T10:38:57.478Z,3.93
2023-02-05T10:41:30.519Z,2.53
2023-02-05T10:44:12.218Z,2.13
2023-02-05T10:46:41.256Z,2.30
2023-02-05T10:49:44.250Z,2.60
2023-02-05T10:52:14.865Z,2.13
2023-02-05T10:54:43.575Z,2.63
2023-02-05T10:57:18.410Z,2.10
2023-02-05T10:59:59.204Z,2.67
2023-02-05T11:02:43.298Z,2.83
2023-02-05T11:05:27.130Z,1.90
2023-02-05T11:07:55.461Z,3.40
2023-02-05T11:10:27.823Z,2.20
2023-02-05T11:13:17.090Z,3.60
2023-02-05T11:16:04.114Z,2.30
2023-02-05T11:18:40.230Z,2.23
2023-02-05T11:21:09.912Z,4.60
2023-02-05T11:23:40.203Z,3.87
2023-02-05T11:26:23.120Z,2.47
2023-02-05T11:28:50.801Z,3.97
2023-02-05T11:31:28.185Z,2.50
2023-02-05T11:34:07.878Z,2.93
2023-02-05T11:36:56.979Z,2.90
2023-02-05T11:39:38.811Z,3.60
2023-02-05T11:42:32.666Z,2.80
2023-02-05T11:45:03.257Z,3.40
2023-02-05T11:47:37.524Z,2.20
2023-02-05T11:50:06.934Z,1.90
2023-02-05T11:52:37.732Z,2.10
2023-02-05T11:55:06.793Z,6.63
2023-02-05T11:57:42.021Z,2.60
2023-02-05T12:00:09.522Z,2.50
2023-02-05T12:02:41.072Z,14.57
2023-02-05T12:05:19.441Z,4.67
2023-02-05T12:08:31.351Z,4.70
2023-02-05T12:11:26.404Z,28.00
2023-02-05T12:14:10.621Z,6.93
2023-02-05T12:16:57.856Z,37.00
2023-02-05T12:19:55.526Z,24.77
2023-02-05T12:22:51.776Z,10.03
2023-02-05T12:25:30.034Z,22.20
2023-02-05T12:28:21.509Z,22.93
2023-02-05T12:31:22.418Z,11.03
2023-02-05T12:34:13.350Z,7.87
2023-02-05T12:37:09.321Z,4.33
2023-02-05T12:40:20.830Z,11.43
2023-02-05T12:43:20.674Z,15.50
2023-02-05T12:46:40.120Z,3.00
2023-02-05T12:49:29.149Z,4.87
2023-02-05T12:52:27.150Z,3.80
2023-02-05T12:55:41.820Z,5.80
2023-02-05T12:58:12.208Z,11.87
2023-02-05T13:00:52.303Z,2.83
2023-02-05T13:03:38.947Z,10.77
2023-02-05T13:06:29.998Z,3.50
2023-02-05T13:09:07.124Z,2.57
2023-02-05T13:11:44.880Z,2.97
2023-02-05T13:14:14.470Z,2.30
2023-02-05T13:16:47.532Z,3.60
2023-02-05T13:19:45.064Z,5.73
2023-02-05T13:23:03.148Z,5.70
2023-02-05T13:26:08.441Z,3.07
2023-02-05T13:28:47.736Z,5.10
2023-02-05T13:31:39.123Z,4.77
2023-02-05T13:34:09.989Z,6.83
2023-02-05T13:37:13.073Z,8.20
2023-02-05T13:39:58.290Z,7.13
2023-02-05T13:42:48.566Z,4.40
2023-02-05T13:46:00.032Z,4.57
2023-02-05T13:48:58.954Z,3.57
2023-02-05T13:51:39.609Z,3.23
2023-02-05T13:54:24.531Z,2.90
2023-02-05T13:57:26.459Z,8.00
2023-02-05T13:59:55.136Z,7.83
2023-02-05T14:02:33.852Z,6.80
2023-02-05T14:05:03.243Z,8.87
2023-02-05T14:07:46.080Z,4.90
2023-02-05T14:10:37.843Z,11.77
2023-02-05T14:13:32.657Z,16.33
2023-02-05T14:16:25.980Z,16.63
2023-02-05T14:19:02.228Z,6.30
2023-02-05T14:21:32.589Z,3.80
2023-02-05T14:24:29.235Z,4.93
2023-02-05T14:27:00.734Z,4.40
2023-02-05T14:29:49.822Z,3.80
2023-02-05T14:32:29.016Z,4.13
2023-02-05T14:35:32.756Z,4.40
2023-02-05T14:38:23.601Z,6.63
2023-02-05T14:41:25.757Z,4.07
2023-02-05T14:44:19.950Z,10.33
2023-02-05T14:47:23.248Z,10.77
2023-02-05T14:49:51.486Z,4.47
2023-02-05T14:52:46.407Z,5.40
2023-02-05T14:55:13.757Z,3.80
2023-02-05T14:58:04.688Z,13.53
2023-02-05T15:00:35.086Z,16.10
2023-02-05T15:03:05.235Z,10.90
2023-02-05T15:05:44.399Z,12.43
2023-02-05T15:08:34.973Z,7.50
2023-02-05T15:11:26.311Z,7.60
2023-02-05T15:14:21.607Z,10.67
2023-02-05T15:17:07.575Z,12.93
2023-02-05T15:20:02.779Z,10.80
2023-02-05T15:22:46.507Z,14.67
2023-02-05T15:25:31.005Z,10.53
2023-02-05T15:28:09.931Z,11.30
2023-02-05T15:30:58.512Z,9.60
2023-02-05T15:33:43.708Z,16.20
2023-02-05T15:36:27.325Z,31.00
2023-02-05T15:39:20.000Z,35.60
2023-02-05T15:41:48.949Z,32.43
2023-02-05T15:44:35.014Z,22.90
2023-02-05T15:47:15.430Z,20.93
2023-02-05T15:50:02.905Z,19.83
2023-02-05T15:52:36.330Z,16.50
2023-02-05T15:55:18.889Z,19.10
2023-02-05T15:57:48.946Z,9.70
2023-02-05T16:00:38.216Z,6.93
2023-02-05T16:03:06.892Z,8.20
2023-02-05T16:05:34.786Z,8.87
2023-02-05T16:08:03.223Z,11.80
2023-02-05T16:10:34.626Z,18.03
2023-02-05T16:13:16.424Z,45.87
2023-02-05T16:16:09.983Z,19.33
2023-02-05T16:18:58.922Z,13.37
2023-02-05T16:21:30.693Z,13.97
2023-02-05T16:24:37.439Z,26.00
2023-02-05T16:27:16.486Z,16.80
2023-02-05T16:29:57.658Z,25.30
2023-02-05T16:32:45.060Z,31.53
2023-02-05T16:35:29.386Z,25.37
2023-02-05T16:37:57.714Z,19.27
2023-02-05T16:40:43.196Z,23.30
2023-02-05T16:43:38.653Z,30.40
2023-02-05T16:46:22.069Z,16.00
2023-02-05T16:48:52.611Z,12.43
2023-02-05T16:51:32.679Z,25.47
2023-02-05T16:54:11.907Z,25.93
2023-02-05T16:57:08.644Z,51.67
2023-02-05T16:59:52.861Z,55.13
2023-02-05T17:02:30.730Z,66.87
2023-02-05T17:05:01.605Z,27.67
2023-02-05T17:07:30.445Z,26.77
2023-02-05T17:10:20.807Z,23.37
2023-02-05T17:13:05.550Z,23.57
2023-02-05T17:15:36.512Z,20.60
2023-02-05T17:18:24.871Z,38.77
2023-02-05T17:20:52.371Z,62.10
2023-02-05T17:23:19.981Z,59.23
2023-02-05T17:25:47.359Z,38.80
2023-02-05T17:28:18.763Z,19.97
2023-02-05T17:30:48.295Z,14.43
2023-02-05T17:33:25.475Z,15.63
2023-02-05T17:35:52.977Z,14.67
2023-02-05T17:38:23.769Z,13.97
2023-02-05T17:41:11.349Z,16.07
2023-02-05T17:43:39.348Z,12.63
2023-02-05T17:46:15.056Z,14.80
2023-02-05T17:48:44.832Z,16.37
2023-02-05T17:51:20.682Z,15.93
2023-02-05T17:53:49.600Z,15.40
2023-02-05T17:56:19.487Z,15.10
2023-02-05T17:58:47.644Z,16.83
2023-02-05T18:01:15.492Z,23.10
2023-02-05T18:03:43.095Z,17.03
2023-02-05T18:06:13.746Z,24.57
2023-02-05T18:08:42.313Z,17.83
2023-02-05T18:11:10.570Z,16.07
2023-02-05T18:13:38.301Z,15.00
2023-02-05T18:16:06.038Z,18.83
2023-02-05T18:18:39.015Z,21.00
2023-02-05T18:21:07.411Z,19.53
2023-02-05T18:23:35.239Z,34.93
2023-02-05T18:26:06.162Z,22.10
2023-02-05T18:28:34.455Z,21.07
2023-02-05T18:31:06.362Z,18.87
2023-02-05T18:33:34.376Z,18.03
2023-02-05T18:36:04.228Z,17.67
2023-02-05T18:38:32.371Z,20.57
2023-02-05T18:41:08.586Z,26.43
2023-02-05T18:43:37.147Z,32.93
2023-02-05T18:46:16.506Z,46.37
2023-02-05T18:48:45.933Z,35.93
2023-02-05T18:51:16.071Z,40.43
2023-02-05T18:53:45.758Z,40.40
2023-02-05T18:56:22.812Z,34.87
2023-02-05T18:59:02.535Z,27.57
2023-02-05T19:01:37.299Z,27.60
2023-02-05T19:04:12.481Z,27.23
2023-02-05T19:06:45.545Z,26.77
2023-02-05T19:09:13.044Z,25.00
2023-02-05T19:11:41.605Z,31.97
2023-02-05T19:14:13.668Z,35.47
2023-02-05T19:16:42.225Z,55.77
2023-02-05T19:19:14.816Z,52.77
2023-02-05T19:21:45.011Z,39.63
2023-02-05T19:24:14.292Z,30.03
2023-02-05T19:26:44.287Z,25.97
2023-02-05T19:29:18.818Z,25.37
2023-02-05T19:31:47.005Z,35.03
2023-02-05T19:34:15.717Z,31.83
2023-02-05T19:36:43.911Z,32.43
2023-02-05T19:39:16.884Z,37.90
2023-02-05T19:41:46.359Z,44.93
2023-02-05T19:44:13.794Z,43.90
2023-02-05T19:46:48.887Z,39.33
2023-02-05T19:49:20.288Z,23.67
2023-02-05T19:51:59.604Z,21.20
2023-02-05T19:54:27.308Z,24.50
2023-02-05T19:56:55.034Z,22.53
2023-02-05T19:59:22.737Z,21.80
2023-02-05T20:01:50.396Z,21.43
2023-02-05T20:04:22.491Z,18.43
2023-02-05T20:06:52.638Z,19.10
2023-02-05T20:09:20.303Z,19.03
2023-02-05T20:11:52.690Z,20.07
2023-02-05T20:14:20.514Z,21.27
2023-02-05T20:16:48.216Z,15.97
2023-02-05T20:19:17.707Z,16.10
2023-02-05T20:21:46.844Z,18.47
2023-02-05T20:24:16.424Z,19.57
2023-02-05T20:26:49.409Z,20.70
2023-02-05T20:29:39.846Z,24.10
2023-02-05T20:32:09.815Z,31.80
2023-02-05T20:34:39.602Z,30.30
2023-02-05T20:37:09.660Z,27.83
2023-02-05T20:39:42.051Z,26.70
2023-02-05T20:42:16.363Z,23.13
2023-02-05T20:44:44.228Z,21.43
2023-02-05T20:47:14.577Z,22.37
2023-02-05T20:49:43.167Z,27.00
2023-02-05T20:52:11.271Z,34.17
2023-02-05T20:54:38.909Z,32.93
2023-02-05T20:57:06.531Z,30.20
2023-02-05T20:59:34.610Z,21.23
2023-02-05T21:02:02.900Z,19.97
2023-02-05T21:04:30.983Z,17.43
2023-02-05T21:06:58.607Z,27.20
2023-02-05T21:09:26.041Z,67.20
2023-02-05T21:11:55.681Z,39.57
2023-02-05T21:14:23.666Z,65.83
2023-02-05T21:16:51.202Z,45.07
2023-02-05T21:19:18.683Z,45.53
2023-02-05T21:21:46.153Z,21.20
2023-02-05T21:24:16.266Z,23.97
2023-02-05T21:26:49.075Z,20.00
2023-02-05T21:29:20.319Z,20.10
2023-02-05T21:31:53.128Z,20.27
2023-02-05T21:34:25.162Z,18.93
2023-02-05T21:36:54.190Z,18.60
2023-02-05T21:39:22.534Z,17.00
2023-02-05T21:41:50.979Z,19.77
2023-02-05T21:44:18.742Z,19.00
2023-02-05T21:46:46.449Z,20.17
2023-02-05T21:49:14.130Z,20.27
2023-02-05T21:51:44.313Z,18.93
2023-02-05T21:54:12.166Z,19.40
2023-02-05T21:56:42.720Z,20.20
2023-02-05T21:59:13.042Z,21.30
2023-02-05T22:01:42.177Z,21.13
2023-02-05T22:04:16.313Z,21.53
2023-02-05T22:06:44.633Z,23.77
2023-02-05T22:09:15.289Z,24.60
2023-02-05T22:11:45.060Z,26.43
2023-02-05T22:14:12.695Z,32.43
2023-02-05T22:16:40.386Z,32.33
2023-02-05T22:19:08.541Z,36.37
2023-02-05T22:21:40.412Z,38.80
2023-02-05T22:24:10.986Z,35.90
2023-02-05T22:26:41.629Z,32.00
2023-02-05T22:29:14.171Z,31.10
2023-02-05T22:31:42.056Z,30.43
2023-02-05T22:34:09.610Z,37.17
2023-02-05T22:36:37.900Z,47.40
2023-02-05T22:39:06.669Z,45.00
2023-02-05T22:41:37.898Z,41.57
2023-02-05T22:44:07.001Z,42.60
2023-02-05T22:46:40.130Z,38.00
2023-02-05T22:49:08.269Z,34.23
2023-02-05T22:51:39.165Z,32.23
2023-02-05T22:54:07.959Z,35.63
2023-02-05T22:56:35.534Z,42.40
2023-02-05T22:59:03.675Z,42.77
2023-02-05T23:01:35.007Z,40.40
2023-02-05T23:04:04.745Z,40.80
2023-02-05T23:06:38.560Z,40.43
2023-02-05T23:09:08.719Z,38.77
2023-02-05T23:11:37.470Z,48.53
2023-02-05T23:14:06.679Z,45.27
2023-02-05T23:16:39.617Z,50.47
2023-02-05T23:19:19.064Z,53.30
2023-02-05T23:21:47.415Z,44.67
2023-02-05T23:24:15.753Z,41.47
2023-02-05T23:26:46.686Z,41.70
2023-02-05T23:29:17.188Z,40.13
2023-02-05T23:31:45.408Z,44.80
2023-02-05T23:34:13.885Z,56.60
2023-02-05T23:36:41.327Z,45.70
2023-02-05T23:39:08.935Z,44.73
2023-02-05T23:41:36.913Z,42.73
2023-02-05T23:44:22.649Z,41.47
2023-02-05T23:46:51.346Z,37.30
2023-02-05T23:49:23.873Z,38.00
2023-02-05T23:51:54.104Z,39.33
2023-02-05T23:54:23.881Z,38.63
2023-02-05T23:56:52.617Z,34.13
2023-02-05T23:59:20.091Z,32.20
